createdAt,value
2023-04-02T00:00:09.800Z,97382.22
2023-04-02T00:03:09.754Z,97376.63
2023-04-02T00:06:00.845Z,97380.84
2023-04-02T00:08:38.945Z,97375.22
2023-04-02T00:11:06.807Z,97380.41
2023-04-02T00:13:43.239Z,97378.81
2023-04-02T00:16:16.847Z,97373.75
2023-04-02T00:18:49.581Z,97388.31
2023-04-02T00:21:29.096Z,97390.88
2023-04-02T00:23:59.514Z,97395.09
2023-04-02T00:26:31.368Z,97395.09
2023-04-02T00:29:00.063Z,97396.72
2023-04-02T00:31:27.153Z,97394.25
2023-04-02T00:33:54.227Z,97396.78
2023-04-02T00:36:22.175Z,97403.50
2023-04-02T00:38:49.249Z,97412.91
2023-04-02T00:41:22.526Z,97412.06
2023-04-02T00:43:53.721Z,97411.19
2023-04-02T00:46:24.205Z,97413.75
2023-04-02T00:48:57.794Z,97400.03
2023-04-02T00:51:29.259Z,97405.06
2023-04-02T00:54:02.117Z,97408.50
2023-04-02T00:56:34.167Z,97411.91
2023-04-02T00:59:00.847Z,97412.78
2023-04-02T01:01:37.487Z,97411.06
2023-04-02T01:04:05.669Z,97413.38
2023-04-02T01:06:37.188Z,97419.47
2023-04-02T01:09:06.629Z,97416.81
2023-04-02T01:11:57.407Z,97421.28
2023-04-02T01:14:45.262Z,97425.59
2023-04-02T01:17:17.562Z,97427.25
2023-04-02T01:20:25.348Z,97427.31
2023-04-02T01:23:09.422Z,97430.53
2023-04-02T01:25:43.559Z,97429.69
2023-04-02T01:28:35.955Z,97431.34
2023-04-02T01:31:03.825Z,97436.38
2023-04-02T01:33:34.343Z,97438.13
2023-04-02T01:36:27.220Z,97443.31
2023-04-02T01:39:49.451Z,97446.00
2023-04-02T01:42:41.793Z,97449.47
2023-04-02T01:45:19.886Z,97446.69
2023-04-02T01:48:06.902Z,97456.38
2023-04-02T01:50:51.556Z,97457.78
2023-04-02T01:53:33.573Z,97458.78
2023-04-02T01:56:26.029Z,97456.38
2023-04-02T01:59:36.345Z,97463.09
2023-04-02T02:05:28.714Z,97463.81
2023-04-02T02:08:10.262Z,97465.50
2023-04-02T02:10:42.781Z,97453.47
2023-04-02T02:16:12.471Z,97461.88
2023-04-02T02:18:47.530Z,97474.09
2023-04-02T02:21:39.017Z,97481.63
2023-04-02T02:24:35.021Z,97479.28
2023-04-02T02:27:29.532Z,97480.06
2023-04-02T02:30:09.589Z,97485.91
2023-04-02T02:32:49.074Z,97483.31
2023-04-02T02:35:46.543Z,97491.31
2023-04-02T02:38:18.044Z,97491.03
2023-04-02T02:40:59.472Z,97493.50
2023-04-02T02:43:37.513Z,97497.03
2023-04-02T02:46:14.353Z,97494.47
2023-04-02T02:48:47.844Z,97503.03
2023-04-02T02:54:13.637Z,97512.22
2023-04-02T02:56:55.922Z,97509.66
2023-04-02T02:59:28.173Z,97514.91
2023-04-02T03:02:00.365Z,97517.41
2023-04-02T03:07:57.559Z,97518.44
2023-04-02T03:14:31.904Z,97527.94
2023-04-02T03:21:15.130Z,97527.19
2023-04-02T03:28:04.947Z,97544.38
2023-04-02T03:31:12.681Z,97545.28
2023-04-02T03:34:27.378Z,97552.91
2023-04-02T03:37:38.273Z,97554.66
2023-04-02T03:40:34.351Z,97558.72
2023-04-02T03:46:49.886Z,97559.88
2023-04-02T03:49:29.858Z,97560.75
2023-04-02T03:52:21.964Z,97559.16
2023-04-02T03:55:03.263Z,97563.38
2023-04-02T03:58:10.357Z,97564.03
2023-04-02T04:04:27.880Z,97571.03
2023-04-02T04:19:42.889Z,97591.44
2023-04-02T04:22:46.916Z,97599.97
2023-04-02T04:25:45.490Z,97599.19
2023-04-02T04:32:42.174Z,97604.47
2023-04-02T04:36:03.213Z,97608.66
2023-04-02T04:39:07.008Z,97612.94
2023-04-02T04:42:12.948Z,97623.00
2023-04-02T04:45:06.756Z,97624.66
2023-04-02T04:48:21.677Z,97622.22
2023-04-02T04:52:02.467Z,97631.44
2023-04-02T04:54:59.898Z,97636.66
2023-04-02T04:58:15.287Z,97644.63
2023-04-02T05:01:40.848Z,97637.91
2023-04-02T05:05:04.142Z,97654.06
2023-04-02T05:07:54.918Z,97648.94
2023-04-02T05:14:25.120Z,97660.81
2023-04-02T05:20:32.501Z,97673.63
2023-04-02T05:26:25.063Z,97670.28
2023-04-02T05:29:38.883Z,97675.47
2023-04-02T05:32:35.206Z,97680.56
2023-04-02T05:41:59.497Z,97697.47
2023-04-02T05:44:48.561Z,97694.16
2023-04-02T05:47:27.584Z,97702.75
2023-04-02T05:50:12.364Z,97705.16
2023-04-02T05:52:48.798Z,97714.38
2023-04-02T05:55:33.100Z,97714.47
2023-04-02T05:58:33.784Z,97717.81
2023-04-02T06:01:12.969Z,97715.63
2023-04-02T06:03:52.661Z,97724.94
2023-04-02T06:06:31.645Z,97722.47
2023-04-02T06:09:09.856Z,97725.97
2023-04-02T06:12:08.040Z,97733.56
2023-04-02T06:14:34.560Z,97734.47
2023-04-02T06:17:01.066Z,97740.44
2023-04-02T06:19:31.914Z,97744.78
2023-04-02T06:22:08.280Z,97747.34
2023-04-02T06:24:38.697Z,97754.06
2023-04-02T06:27:06.982Z,97757.47
2023-04-02T06:29:39.772Z,97768.59
2023-04-02T06:32:08.534Z,97767.59
2023-04-02T06:34:37.237Z,97771.00
2023-04-02T06:37:38.158Z,97779.56
2023-04-02T06:40:06.882Z,97777.78
2023-04-02T06:42:37.138Z,97784.63
2023-04-02T06:45:04.366Z,97784.69
2023-04-02T06:47:42.673Z,97794.09
2023-04-02T06:50:28.265Z,97798.34
2023-04-02T06:53:06.645Z,97799.09
2023-04-02T06:55:52.305Z,97812.09
2023-04-02T06:58:20.103Z,97821.47
2023-04-02T07:00:52.272Z,97832.41
2023-04-02T07:03:29.119Z,97826.78
2023-04-02T07:05:56.825Z,97832.03
2023-04-02T07:08:24.270Z,97838.34
2023-04-02T07:10:51.152Z,97839.47
2023-04-02T07:13:22.979Z,97843.94
2023-04-02T07:15:52.884Z,97850.06
2023-04-02T07:18:30.347Z,97847.25
2023-04-02T07:20:57.432Z,97857.81
2023-04-02T07:23:24.747Z,97864.31
2023-04-02T07:26:02.064Z,97868.84
2023-04-02T07:28:29.026Z,97873.09
2023-04-02T07:30:56.462Z,97873.53
2023-04-02T07:33:25.929Z,97883.31
2023-04-02T07:35:53.927Z,97883.44
2023-04-02T07:38:20.702Z,97891.00
2023-04-02T07:40:47.385Z,97892.19
2023-04-02T07:43:13.876Z,97895.69
2023-04-02T07:45:40.284Z,97919.69
2023-04-02T07:48:09.096Z,97912.22
2023-04-02T07:50:35.782Z,97916.84
2023-04-02T07:53:02.479Z,97924.69
2023-04-02T07:55:28.911Z,97932.75
2023-04-02T07:58:01.877Z,97938.56
2023-04-02T08:00:29.075Z,97944.09
2023-04-02T08:02:56.163Z,97954.59
2023-04-02T08:05:22.975Z,97942.41
2023-04-02T08:07:56.892Z,97961.50
2023-04-02T08:10:24.327Z,97955.84
2023-04-02T08:12:51.112Z,97966.50
2023-04-02T08:15:18.260Z,97968.47
2023-04-02T08:17:45.386Z,97974.13
2023-04-02T08:20:22.439Z,97974.59
2023-04-02T08:22:49.790Z,97985.66
2023-04-02T08:25:16.753Z,97993.00
2023-04-02T08:27:46.373Z,97998.16
2023-04-02T08:30:13.537Z,98005.00
2023-04-02T08:32:43.211Z,98002.03
2023-04-02T08:35:11.644Z,98012.81
2023-04-02T08:37:41.804Z,98009.47
2023-04-02T08:40:18.469Z,98018.84
2023-04-02T08:42:49.848Z,98017.69
2023-04-02T08:45:33.294Z,98020.41
2023-04-02T08:48:03.733Z,98033.88
2023-04-02T08:50:36.342Z,98038.47
2023-04-02T08:53:07.040Z,98037.16
2023-04-02T08:55:47.866Z,98047.16
2023-04-02T08:58:43.288Z,98051.81
2023-04-02T09:01:49.597Z,98051.50
2023-04-02T09:04:23.219Z,98059.81
2023-04-02T09:06:52.397Z,98064.59
2023-04-02T09:09:19.829Z,98071.00
2023-04-02T09:12:00.781Z,98074.47
2023-04-02T09:14:41.859Z,98079.84
2023-04-02T09:17:20.716Z,98082.19
2023-04-02T09:19:52.166Z,98088.38
2023-04-02T09:22:22.781Z,98091.41
2023-04-02T09:25:00.431Z,98096.28
2023-04-02T09:27:33.441Z,98107.22
2023-04-02T09:30:12.038Z,98105.34
2023-04-02T09:32:56.907Z,98114.91
2023-04-02T09:35:29.285Z,98123.59
2023-04-02T09:38:07.889Z,98118.56
2023-04-02T09:40:51.465Z,98122.72
2023-04-02T09:43:21.811Z,98131.88
2023-04-02T09:45:57.889Z,98146.09
2023-04-02T09:48:30.321Z,98133.06
2023-04-02T09:51:20.211Z,98143.22
2023-04-02T09:54:01.924Z,98149.78
2023-04-02T09:56:30.100Z,98161.03
2023-04-02T09:59:17.934Z,98161.84
2023-04-02T10:01:54.859Z,98168.22
2023-04-02T10:04:44.933Z,98172.34
2023-04-02T10:07:36.818Z,98180.00
2023-04-02T10:10:44.911Z,98179.88
2023-04-02T10:13:23.059Z,98189.25
2023-04-02T10:16:03.805Z,98185.66
2023-04-02T10:18:55.726Z,98190.34
2023-04-02T10:21:27.269Z,98196.16
2023-04-02T10:23:55.475Z,98201.78
2023-04-02T10:26:35.679Z,98205.72
2023-04-02T10:29:16.562Z,98218.09
2023-04-02T10:31:58.389Z,98214.38
2023-04-02T10:34:46.498Z,98215.22
2023-04-02T10:37:25.430Z,98219.81
2023-04-02T10:40:00.496Z,98230.38
2023-04-02T10:42:41.093Z,98232.75
2023-04-02T10:45:30.807Z,98243.75
2023-04-02T10:48:09.336Z,98246.38
2023-04-02T10:50:49.672Z,98249.28
2023-04-02T10:53:20.343Z,98248.06
2023-04-02T10:55:53.865Z,98256.31
2023-04-02T10:58:26.672Z,98260.16
2023-04-02T11:01:01.338Z,98254.78
2023-04-02T11:03:43.323Z,98268.28
2023-04-02T11:06:20.397Z,98275.41
2023-04-02T11:08:50.435Z,98273.19
2023-04-02T11:11:21.400Z,98283.53
2023-04-02T11:14:12.519Z,98293.75
2023-04-02T11:16:43.440Z,98292.47
2023-04-02T11:19:18.239Z,98286.91
2023-04-02T11:22:01.303Z,98291.13
2023-04-02T11:24:30.272Z,98296.38
2023-04-02T11:27:12.144Z,98307.06
2023-04-02T11:29:42.568Z,98307.97
2023-04-02T11:32:25.377Z,98312.31
2023-04-02T11:35:05.788Z,98316.28
2023-04-02T11:37:44.916Z,98324.91
2023-04-02T11:40:11.674Z,98325.06
2023-04-02T11:42:40.417Z,98326.81
2023-04-02T11:45:28.288Z,98342.81
2023-04-02T11:48:07.905Z,98338.66
2023-04-02T11:50:40.344Z,98336.78
2023-04-02T11:53:16.587Z,98343.19
2023-04-02T11:56:05.804Z,98344.88
2023-04-02T11:58:49.132Z,98343.00
2023-04-02T12:01:50.369Z,98346.34
2023-04-02T12:04:34.721Z,98351.72
2023-04-02T12:07:04.125Z,98362.03
2023-04-02T12:09:49.683Z,98355.91
2023-04-02T12:12:32.280Z,98366.13
2023-04-02T12:15:01.089Z,98378.97
2023-04-02T12:17:40.537Z,98375.50
2023-04-02T12:20:08.401Z,98380.63
2023-04-02T12:22:40.811Z,98377.91
2023-04-02T12:25:24.449Z,98381.28
2023-04-02T12:28:07.693Z,98382.25
2023-04-02T12:30:34.513Z,98392.03
2023-04-02T12:33:19.565Z,98390.78
2023-04-02T12:35:47.739Z,98398.81
2023-04-02T12:38:23.184Z,98390.47
2023-04-02T12:40:58.687Z,98408.31
2023-04-02T12:43:31.394Z,98407.19
2023-04-02T12:46:01.170Z,98411.59
2023-04-02T12:48:29.557Z,98411.28
2023-04-02T12:50:57.336Z,98417.50
2023-04-02T12:53:34.618Z,98420.53
2023-04-02T12:56:01.896Z,98419.03
2023-04-02T12:58:56.698Z,98422.25
2023-04-02T13:01:29.369Z,98419.31
2023-04-02T13:04:22.338Z,98430.34
2023-04-02T13:06:57.408Z,98427.69
2023-04-02T13:09:44.880Z,98436.00
2023-04-02T13:12:32.108Z,98444.78
2023-04-02T13:15:01.031Z,98453.94
2023-04-02T13:17:42.316Z,98445.72
2023-04-02T13:20:27.490Z,98450.75
2023-04-02T13:22:54.093Z,98463.38
2023-04-02T13:25:31.990Z,98453.75
2023-04-02T13:27:58.480Z,98455.47
2023-04-02T13:30:27.929Z,98467.72
2023-04-02T13:32:55.531Z,98473.16
2023-04-02T13:35:22.440Z,98474.09
2023-04-02T13:37:49.051Z,98482.66
2023-04-02T13:40:18.290Z,98486.03
2023-04-02T13:42:46.537Z,98494.59
2023-04-02T13:45:25.838Z,98497.03
2023-04-02T13:47:52.597Z,98501.25
2023-04-02T13:50:22.180Z,98515.75
2023-04-02T13:52:51.103Z,98509.72
2023-04-02T13:55:24.898Z,98509.00
2023-04-02T13:57:51.650Z,98514.91
2023-04-02T14:00:18.650Z,98509.00
2023-04-02T14:02:51.687Z,98512.56
2023-04-02T14:05:42.597Z,98527.03
2023-04-02T14:08:29.610Z,98536.44
2023-04-02T14:11:08.188Z,98537.31
2023-04-02T14:14:21.910Z,98538.97
2023-04-02T14:17:06.703Z,98550.91
2023-04-02T14:19:54.578Z,98550.88
2023-04-02T14:22:23.994Z,98561.13
2023-04-02T14:25:04.612Z,98569.63
2023-04-02T14:27:59.285Z,98566.22
2023-04-02T14:30:41.582Z,98573.84
2023-04-02T14:33:36.927Z,98580.69
2023-04-02T14:36:19.092Z,98579.00
2023-04-02T14:39:04.221Z,98562.78
2023-04-02T14:41:57.751Z,98577.28
2023-04-02T14:44:29.026Z,98575.56
2023-04-02T14:47:10.710Z,98579.81
2023-04-02T14:49:42.813Z,98583.22
2023-04-02T14:52:14.574Z,98586.59
2023-04-02T14:55:03.433Z,98581.47
2023-04-02T14:57:39.194Z,98589.13
2023-04-02T15:00:28.163Z,98594.25
2023-04-02T15:03:18.189Z,98594.28
2023-04-02T15:05:47.794Z,98599.41
2023-04-02T15:08:26.995Z,98599.41
2023-04-02T15:10:57.064Z,98602.81
2023-04-02T15:13:36.999Z,98609.63
2023-04-02T15:16:26.768Z,98603.69
2023-04-02T15:18:56.469Z,98609.63
2023-04-02T15:21:23.159Z,98607.94
2023-04-02T15:24:02.480Z,98618.16
2023-04-02T15:26:39.397Z,98619.84
2023-04-02T15:29:38.846Z,98618.13
2023-04-02T15:32:17.575Z,98629.19
2023-04-02T15:35:29.621Z,98635.16
2023-04-02T15:37:59.756Z,98636.00
2023-04-02T15:40:54.167Z,98639.44
2023-04-02T15:43:43.723Z,98634.31
2023-04-02T15:46:35.562Z,98643.69
2023-04-02T15:49:20.782Z,98641.09
2023-04-02T15:52:10.511Z,98642.81
2023-04-02T15:54:37.042Z,98656.41
2023-04-02T15:57:27.440Z,98657.28
2023-04-02T16:00:11.356Z,98655.56
2023-04-02T16:03:17.376Z,98661.50
2023-04-02T16:06:12.916Z,98674.28
2023-04-02T16:09:14.722Z,98667.44
2023-04-02T16:11:41.232Z,98676.81
2023-04-02T16:14:25.171Z,98677.66
2023-04-02T16:16:53.147Z,98677.63
2023-04-02T16:19:41.729Z,98688.75
2023-04-02T16:22:28.957Z,98689.56
2023-04-02T16:25:16.569Z,98687.84
2023-04-02T16:27:51.475Z,98694.66
2023-04-02T16:30:41.670Z,98708.25
2023-04-02T16:33:45.491Z,98709.81
2023-04-02T16:36:30.884Z,98713.25
2023-04-02T16:39:16.187Z,98716.72
2023-04-02T16:42:05.409Z,98723.53
2023-04-02T16:44:42.930Z,98725.16
2023-04-02T16:47:31.412Z,98729.44
2023-04-02T16:50:13.323Z,98737.03
2023-04-02T16:52:49.493Z,98729.38
2023-04-02T16:55:48.011Z,98731.91
2023-04-02T16:58:49.698Z,98743.72
2023-04-02T17:01:16.248Z,98742.91
2023-04-02T17:03:55.053Z,98743.69
2023-04-02T17:06:35.378Z,98763.25
2023-04-02T17:09:11.126Z,98748.78
2023-04-02T17:11:44.772Z,98752.97
2023-04-02T17:14:24.550Z,98764.91
2023-04-02T17:16:58.824Z,98764.84
2023-04-02T17:19:27.493Z,98775.84
2023-04-02T17:21:59.225Z,98781.91
2023-04-02T17:24:35.652Z,98787.75
2023-04-02T17:27:17.144Z,98789.38
2023-04-02T17:29:48.129Z,98795.25
2023-04-02T17:32:22.725Z,98802.06
2023-04-02T17:34:49.314Z,98803.78
2023-04-02T17:37:28.169Z,98806.22
2023-04-02T17:40:00.586Z,98807.81
2023-04-02T17:42:39.289Z,98813.00
2023-04-02T17:45:15.793Z,98814.66
2023-04-02T17:48:07.081Z,98819.00
2023-04-02T17:50:54.435Z,98825.63
2023-04-02T17:53:42.089Z,98830.72
2023-04-02T17:56:27.215Z,98833.31
2023-04-02T17:59:14.971Z,98841.72
2023-04-02T18:02:18.683Z,98850.13
2023-04-02T18:05:17.921Z,98853.56
2023-04-02T18:08:07.282Z,98856.03
2023-04-02T18:10:47.346Z,98859.47
2023-04-02T18:13:39.373Z,98864.53
2023-04-02T18:16:35.521Z,98872.06
2023-04-02T18:19:31.650Z,98879.63
2023-04-02T18:22:38.021Z,98887.38
2023-04-02T18:25:28.111Z,98896.56
2023-04-02T18:28:27.137Z,98911.03
2023-04-02T18:31:09.262Z,98907.03
2023-04-02T18:34:03.882Z,98908.66
2023-04-02T18:36:48.838Z,98905.31
2023-04-02T18:39:47.440Z,98924.75
2023-04-02T18:42:33.681Z,98918.13
2023-04-02T18:45:14.986Z,98921.53
2023-04-02T18:48:19.788Z,98928.31
2023-04-02T18:50:49.705Z,98935.00
2023-04-02T18:53:24.083Z,98942.69
2023-04-02T18:55:57.970Z,98949.53
2023-04-02T18:59:02.349Z,98948.69
2023-04-02T19:01:37.495Z,98961.31
2023-04-02T19:04:09.683Z,98958.84
2023-04-02T19:06:44.811Z,98965.69
2023-04-02T19:09:33.713Z,98969.13
2023-04-02T19:12:00.856Z,98967.66
2023-04-02T19:14:27.739Z,98965.22
2023-04-02T19:17:00.852Z,98971.97
2023-04-02T19:20:06.472Z,98981.19
2023-04-02T19:22:57.260Z,98990.53
2023-04-02T19:25:46.843Z,98988.06
2023-04-02T19:28:30.504Z,98995.75
2023-04-02T19:31:31.186Z,99000.72
2023-04-02T19:34:39.192Z,99002.38
2023-04-02T19:37:33.325Z,99005.84
2023-04-02T19:40:10.921Z,99010.06
2023-04-02T19:42:46.710Z,99012.59
2023-04-02T19:45:31.244Z,99021.22
2023-04-02T19:48:00.834Z,99016.03
2023-04-02T19:50:28.369Z,99013.44
2023-04-02T19:52:54.816Z,99018.56
2023-04-02T19:55:21.208Z,99031.34
2023-04-02T19:57:47.613Z,99028.75
2023-04-02T20:00:14.857Z,99030.47
2023-04-02T20:02:41.386Z,99029.56
2023-04-02T20:05:08.222Z,99033.81
2023-04-02T20:07:40.913Z,99034.81
2023-04-02T20:10:08.165Z,99046.91
2023-04-02T20:12:34.608Z,99038.09
2023-04-02T20:15:01.128Z,99028.63
2023-04-02T20:17:28.297Z,99036.44
2023-04-02T20:19:54.838Z,99053.50
2023-04-02T20:22:21.359Z,99046.75
2023-04-02T20:24:47.760Z,99044.09
2023-04-02T20:27:14.174Z,99052.69
2023-04-02T20:29:42.316Z,99057.03
2023-04-02T20:32:09.943Z,99056.00
2023-04-02T20:34:36.752Z,99052.56
2023-04-02T20:37:03.229Z,99052.50
2023-04-02T20:39:29.615Z,99056.72
2023-04-02T20:42:00.941Z,99054.00
2023-04-02T20:44:31.278Z,99059.22
2023-04-02T20:46:57.840Z,99063.56
2023-04-02T20:49:24.290Z,99064.44
2023-04-02T20:51:50.932Z,99069.38
2023-04-02T20:54:17.618Z,99071.06
2023-04-02T20:56:44.757Z,99077.00
2023-04-02T20:59:11.825Z,99083.78
2023-04-02T21:01:38.562Z,99095.81
2023-04-02T21:04:05.057Z,99096.69
2023-04-02T21:06:36.035Z,99103.53
2023-04-02T21:09:08.471Z,99103.22
2023-04-02T21:11:36.187Z,99101.50
2023-04-02T21:14:04.117Z,99104.88
2023-04-02T21:16:34.262Z,99108.41
2023-04-02T21:19:03.812Z,99110.03
2023-04-02T21:21:33.865Z,99106.59
2023-04-02T21:24:03.276Z,99103.22
2023-04-02T21:26:33.439Z,99105.78
2023-04-02T21:29:01.375Z,99107.69
2023-04-02T21:31:33.329Z,99106.72
2023-04-02T21:34:00.268Z,99115.34
2023-04-02T21:36:32.801Z,99113.66
2023-04-02T21:39:05.026Z,99106.66
2023-04-02T21:41:36.630Z,99112.44
2023-04-02T21:44:08.241Z,99113.28
2023-04-02T21:46:38.715Z,99114.03
2023-04-02T21:49:08.052Z,99108.47
2023-04-02T21:51:36.359Z,99113.56
2023-04-02T21:54:03.341Z,99124.63
2023-04-02T21:56:38.857Z,99126.41
2023-04-02T21:59:06.513Z,99128.97
2023-04-02T22:01:37.340Z,99126.38
2023-04-02T22:04:06.195Z,99127.88
2023-04-02T22:06:37.513Z,99127.16
2023-04-02T22:09:07.614Z,99133.94
2023-04-02T22:11:37.563Z,99130.28
2023-04-02T22:14:05.756Z,99140.59
2023-04-02T22:16:33.633Z,99130.44
2023-04-02T22:19:05.362Z,99131.13
2023-04-02T22:21:32.260Z,99134.66
2023-04-02T22:24:03.896Z,99136.50
2023-04-02T22:26:31.520Z,99144.91
2023-04-02T22:28:58.492Z,99141.44
2023-04-02T22:31:27.136Z,99135.56
2023-04-02T22:33:55.332Z,99140.22
2023-04-02T22:36:23.652Z,99131.94
2023-04-02T22:38:51.802Z,99132.03
2023-04-02T22:41:26.326Z,99137.91
2023-04-02T22:43:53.649Z,99137.06
2023-04-02T22:46:20.837Z,99137.03
2023-04-02T22:48:48.802Z,99142.03
2023-04-02T22:51:17.512Z,99140.34
2023-04-02T22:53:45.386Z,99142.81
2023-04-02T22:56:15.479Z,99143.75
2023-04-02T22:58:42.623Z,99137.81
2023-04-02T23:01:17.221Z,99147.09
2023-04-02T23:03:44.059Z,99143.63
2023-04-02T23:06:13.038Z,99141.81
2023-04-02T23:08:39.917Z,99147.88
2023-04-02T23:11:10.203Z,99148.69
2023-04-02T23:13:37.081Z,99146.31
2023-04-02T23:16:05.883Z,99142.69
2023-04-02T23:18:34.155Z,99143.63
2023-04-02T23:21:00.799Z,99141.09
2023-04-02T23:23:27.722Z,99138.59
2023-04-02T23:26:11.782Z,99144.53
2023-04-02T23:28:39.494Z,99131.50
2023-04-02T23:31:08.188Z,99135.00
2023-04-02T23:33:35.073Z,99135.00
2023-04-02T23:36:07.885Z,99143.47
2023-04-02T23:38:34.284Z,99145.13
2023-04-02T23:41:00.734Z,99134.97
2023-04-02T23:43:27.609Z,99143.31
2023-04-02T23:45:57.094Z,99146.63
2023-04-02T23:48:23.721Z,99138.09
2023-04-02T23:50:50.372Z,99141.56
2023-04-02T23:53:17.049Z,99130.38
2023-04-02T23:55:43.745Z,99131.22
2023-04-02T23:58:10.210Z,99126.06
